createdAt,value
2023-03-11T00:05:01.645Z,1.27
2023-03-11T00:10:04.221Z,1.15
2023-03-11T00:15:06.280Z,1.10
2023-03-11T00:20:14.394Z,1.23
2023-03-11T00:25:16.032Z,1.18
2023-03-11T00:30:19.650Z,1.36
2023-03-11T00:35:30.917Z,1.43
2023-03-11T00:40:35.741Z,1.35
2023-03-11T00:45:37.780Z,1.41
2023-03-11T00:50:40.223Z,1.48
2023-03-11T00:55:42.005Z,1.40
2023-03-11T01:00:43.749Z,1.38
2023-03-11T01:05:45.465Z,1.45
2023-03-11T01:10:47.088Z,1.33
2023-03-11T01:15:48.995Z,1.23
2023-03-11T01:20:50.914Z,1.31
2023-03-11T01:25:52.598Z,1.29
2023-03-11T01:30:54.274Z,1.56
2023-03-11T01:35:56.036Z,1.47
2023-03-11T01:40:57.804Z,1.49
2023-03-11T01:46:02.281Z,1.56
2023-03-11T01:51:04.294Z,1.63
2023-03-11T01:56:06.666Z,1.60
2023-03-11T02:01:08.440Z,1.57
2023-03-11T02:06:14.196Z,1.70
2023-03-11T02:11:20.722Z,1.66
2023-03-11T02:16:22.624Z,1.71
2023-03-11T02:21:32.869Z,1.62
2023-03-11T02:27:05.568Z,1.36
2023-03-11T02:32:09.394Z,1.47
2023-03-11T02:37:13.755Z,1.25
2023-03-11T02:42:26.410Z,1.44
2023-03-11T02:47:28.379Z,1.52
2023-03-11T02:52:33.574Z,1.57
2023-03-11T02:57:35.230Z,1.57
2023-03-11T03:02:37.431Z,1.67
2023-03-11T03:07:40.332Z,1.73
2023-03-11T03:12:42.664Z,1.70
2023-03-11T03:17:45.076Z,1.79
2023-03-11T03:22:47.409Z,1.74
2023-03-11T03:27:51.141Z,1.73
2023-03-11T03:32:53.464Z,1.74
2023-03-11T03:37:56.002Z,1.74
2023-03-11T03:42:58.325Z,1.73
2023-03-11T03:48:00.598Z,1.64
2023-03-11T03:53:02.876Z,1.64
2023-03-11T03:58:05.160Z,1.72
2023-03-11T04:03:07.809Z,1.74
2023-03-11T04:08:10.145Z,1.69
2023-03-11T04:13:12.418Z,1.81
2023-03-11T04:18:14.742Z,1.77
2023-03-11T04:23:17.258Z,1.79
2023-03-11T04:28:20.296Z,1.68
2023-03-11T04:33:22.829Z,1.48
2023-03-11T04:38:25.767Z,1.29
2023-03-11T04:43:28.110Z,1.28
2023-03-11T04:48:30.400Z,1.28
2023-03-11T04:53:32.761Z,1.16
2023-03-11T04:58:35.081Z,1.01
2023-03-11T05:03:37.389Z,0.90
2023-03-11T05:08:39.744Z,0.80
2023-03-11T05:13:42.110Z,0.65
2023-03-11T05:18:44.461Z,0.53
2023-03-11T05:23:46.758Z,0.50
2023-03-11T05:28:49.000Z,0.43
2023-03-11T05:33:50.686Z,0.44
2023-03-11T05:38:53.344Z,0.39
2023-03-11T05:43:54.962Z,0.36
2023-03-11T05:48:56.815Z,0.31
2023-03-11T05:53:58.781Z,0.29
2023-03-11T05:59:00.380Z,0.33
2023-03-11T06:04:02.246Z,0.26
2023-03-11T06:09:04.167Z,0.28
2023-03-11T06:14:05.779Z,0.29
2023-03-11T06:19:07.418Z,0.36
2023-03-11T06:24:09.080Z,0.37
2023-03-11T06:29:14.980Z,0.48
2023-03-11T06:34:16.581Z,0.42
2023-03-11T06:39:18.275Z,0.45
2023-03-11T06:44:20.046Z,0.57
2023-03-11T06:49:21.663Z,0.67
2023-03-11T06:54:23.267Z,0.73
2023-03-11T06:59:25.154Z,0.73
2023-03-11T07:04:26.867Z,0.87
2023-03-11T07:09:29.531Z,0.95
2023-03-11T07:14:31.208Z,1.16
2023-03-11T07:19:32.874Z,1.55
2023-03-11T07:24:34.478Z,2.14
2023-03-11T07:29:36.144Z,2.09
2023-03-11T07:34:37.894Z,2.08
2023-03-11T07:39:39.630Z,2.22
2023-03-11T07:44:41.236Z,2.20
2023-03-11T07:49:42.865Z,2.00
2023-03-11T07:54:45.399Z,1.92
2023-03-11T07:59:47.014Z,2.06
2023-03-11T08:04:48.611Z,2.29
2023-03-11T08:09:50.320Z,2.59
2023-03-11T08:14:51.992Z,2.61
2023-03-11T08:19:53.676Z,2.58
2023-03-11T08:24:56.636Z,2.76
2023-03-11T08:30:00.263Z,2.79
2023-03-11T08:35:01.951Z,3.30
2023-03-11T08:40:04.253Z,3.37
2023-03-11T08:45:06.572Z,3.54
2023-03-11T08:50:13.932Z,3.94
2023-03-11T08:55:18.661Z,4.10
2023-03-11T09:00:20.724Z,4.31
2023-03-11T09:05:22.339Z,4.81
2023-03-11T09:10:25.042Z,5.06
2023-03-11T09:15:27.896Z,4.78
2023-03-11T09:20:29.611Z,4.44
2023-03-11T09:25:32.241Z,4.98
2023-03-11T09:30:34.815Z,4.64
2023-03-11T09:35:39.347Z,5.08
2023-03-11T09:41:19.241Z,4.51
2023-03-11T09:46:30.856Z,4.15
2023-03-11T09:51:43.335Z,4.23
2023-03-11T09:56:45.374Z,4.45
2023-03-11T10:01:50.533Z,4.29
2023-03-11T10:06:53.154Z,4.10
2023-03-11T10:12:16.033Z,4.07
2023-03-11T10:17:55.184Z,3.85
2023-03-11T10:23:08.607Z,4.10
2023-03-11T10:28:17.545Z,4.47
2023-03-11T10:33:27.176Z,4.65
2023-03-11T10:38:46.646Z,5.04
2023-03-11T10:44:13.948Z,5.23
2023-03-11T10:49:17.571Z,5.20
2023-03-11T10:54:46.453Z,5.40
2023-03-11T10:59:51.879Z,5.43
2023-03-11T11:05:29.316Z,5.49
2023-03-11T11:10:32.488Z,4.82
2023-03-11T11:15:42.659Z,5.18
2023-03-11T11:21:37.347Z,6.25
2023-03-11T11:26:38.997Z,6.45
2023-03-11T11:31:43.536Z,6.22
2023-03-11T11:36:45.928Z,6.17
2023-03-11T11:41:50.058Z,6.24
2023-03-11T11:46:59.757Z,6.61
2023-03-11T11:52:19.501Z,6.65
2023-03-11T11:57:23.757Z,7.00
2023-03-11T12:02:43.499Z,6.94
2023-03-11T12:08:07.398Z,6.29
2023-03-11T12:13:46.606Z,6.41
2023-03-11T12:19:01.535Z,6.57
2023-03-11T12:24:03.074Z,7.06
2023-03-11T12:29:26.710Z,7.28
2023-03-11T12:34:30.989Z,7.07
2023-03-11T12:39:34.392Z,6.48
2023-03-11T12:44:40.741Z,6.29
2023-03-11T12:49:45.348Z,6.12
2023-03-11T12:54:50.257Z,6.34
2023-03-11T13:00:23.312Z,6.14
2023-03-11T13:05:56.018Z,6.43
2023-03-11T13:10:58.861Z,6.69
2023-03-11T13:16:12.613Z,6.59
2023-03-11T13:21:32.390Z,7.09
2023-03-11T13:26:42.975Z,7.16
2023-03-11T13:31:56.613Z,6.78
2023-03-11T13:37:20.504Z,6.46
2023-03-11T13:42:42.646Z,6.33
2023-03-11T13:47:49.659Z,6.54
2023-03-11T13:52:54.125Z,6.50
2023-03-11T13:57:57.591Z,6.39
2023-03-11T14:03:03.867Z,6.48
2023-03-11T14:08:27.463Z,6.14
2023-03-11T14:13:31.358Z,6.37
2023-03-11T14:18:37.134Z,6.82
2023-03-11T14:23:44.919Z,6.94
2023-03-11T14:28:50.535Z,6.87
2023-03-11T14:34:15.436Z,6.50
2023-03-11T14:39:25.991Z,6.70
2023-03-11T14:44:29.662Z,6.63
2023-03-11T14:49:31.630Z,6.46
2023-03-11T14:54:36.124Z,6.76
2023-03-11T14:59:39.348Z,6.57
2023-03-11T15:04:44.343Z,6.14
2023-03-11T15:09:46.831Z,5.82
2023-03-11T15:14:51.506Z,5.86
2023-03-11T15:19:53.217Z,5.71
2023-03-11T15:24:59.788Z,5.58
2023-03-11T15:30:04.933Z,5.70
2023-03-11T15:35:10.820Z,5.93
2023-03-11T15:40:26.107Z,6.01
2023-03-11T15:45:31.811Z,6.10
2023-03-11T15:50:50.479Z,6.24
2023-03-11T15:56:03.868Z,6.18
2023-03-11T16:01:09.870Z,5.99
2023-03-11T16:06:11.565Z,5.91
2023-03-11T16:11:13.412Z,5.88
2023-03-11T16:16:17.384Z,5.72
2023-03-11T16:21:21.406Z,5.82
2023-03-11T16:26:23.235Z,5.81
2023-03-11T16:31:25.222Z,5.78
2023-03-11T16:36:27.096Z,5.62
2023-03-11T16:41:28.773Z,5.41
2023-03-11T16:46:30.466Z,5.30
2023-03-11T16:51:33.062Z,5.26
2023-03-11T16:56:35.719Z,5.14
2023-03-11T17:01:38.621Z,4.95
2023-03-11T17:06:40.367Z,4.90
2023-03-11T17:11:42.922Z,4.81
2023-03-11T17:16:45.566Z,4.64
2023-03-11T17:21:47.309Z,4.43
2023-03-11T17:26:48.926Z,4.19
2023-03-11T17:31:50.648Z,3.95
2023-03-11T17:36:52.488Z,3.77
2023-03-11T17:41:54.110Z,3.60
2023-03-11T17:46:55.787Z,3.46
2023-03-11T17:51:57.502Z,3.22
2023-03-11T17:56:59.100Z,3.14
2023-03-11T18:02:00.875Z,3.00
2023-03-11T18:07:03.480Z,2.86
2023-03-11T18:12:06.753Z,2.75
2023-03-11T18:17:08.533Z,2.61
2023-03-11T18:22:10.244Z,2.46
2023-03-11T18:27:12.897Z,2.37
2023-03-11T18:32:14.588Z,2.27
2023-03-11T18:37:16.293Z,1.97
2023-03-11T18:42:17.982Z,1.85
2023-03-11T18:47:19.597Z,1.71
2023-03-11T18:52:21.381Z,1.56
2023-03-11T18:57:23.179Z,1.44
2023-03-11T19:02:26.166Z,1.18
2023-03-11T19:07:30.785Z,1.06
2023-03-11T19:12:34.510Z,1.08
2023-03-11T19:17:36.251Z,1.13
2023-03-11T19:22:38.261Z,1.10
2023-03-11T19:27:40.302Z,0.98
2023-03-11T19:32:41.962Z,0.91
2023-03-11T19:37:43.584Z,0.90
2023-03-11T19:42:45.249Z,0.82
2023-03-11T19:47:50.718Z,0.72
2023-03-11T19:52:52.500Z,0.60
2023-03-11T19:57:55.003Z,0.46
2023-03-11T20:02:56.905Z,0.41
2023-03-11T20:07:58.674Z,0.44
2023-03-11T20:13:02.934Z,0.44
2023-03-11T20:18:06.281Z,0.33
2023-03-11T20:23:07.995Z,0.19
2023-03-11T20:28:09.884Z,0.22
2023-03-11T20:33:11.564Z,0.21
2023-03-11T20:38:13.327Z,0.16
2023-03-11T20:43:14.943Z,0.12
2023-03-11T20:48:16.677Z,0.09
2023-03-11T20:53:18.324Z,0.05
2023-03-11T20:58:19.987Z,0.02
2023-03-11T21:03:21.953Z,-0.00
2023-03-11T21:08:23.775Z,-0.04
2023-03-11T21:13:25.450Z,-0.07
2023-03-11T21:18:27.182Z,-0.08
2023-03-11T21:23:28.920Z,-0.13
2023-03-11T21:28:31.518Z,-0.20
2023-03-11T21:33:33.444Z,-0.28
2023-03-11T21:38:35.683Z,-0.38
2023-03-11T21:43:38.957Z,-0.43
2023-03-11T21:48:40.682Z,-0.48
2023-03-11T21:53:42.853Z,-0.64
2023-03-11T21:58:44.692Z,-0.83
2023-03-11T22:03:47.475Z,-0.81
2023-03-11T22:08:49.349Z,-0.74
2023-03-11T22:13:54.157Z,-0.77
2023-03-11T22:18:55.981Z,-0.74
2023-03-11T22:23:57.676Z,-0.66
2023-03-11T22:28:59.313Z,-0.61
2023-03-11T22:34:00.911Z,-0.62
2023-03-11T22:39:04.412Z,-0.68
2023-03-11T22:44:06.153Z,-0.56
2023-03-11T22:49:07.793Z,-0.54
2023-03-11T22:54:09.501Z,-0.54
2023-03-11T22:59:11.147Z,-0.62
2023-03-11T23:04:12.842Z,-0.78
2023-03-11T23:09:14.877Z,-0.80
2023-03-11T23:14:16.809Z,-0.78
2023-03-11T23:19:18.467Z,-0.79
2023-03-11T23:24:20.093Z,-0.80
2023-03-11T23:29:21.790Z,-0.82
2023-03-11T23:34:23.461Z,-0.74
2023-03-11T23:39:25.085Z,-0.68
2023-03-11T23:44:27.076Z,-0.80
2023-03-11T23:49:28.796Z,-0.70
2023-03-11T23:54:30.463Z,-0.56
2023-03-11T23:59:32.194Z,-0.46
